createdAt,value
2024-04-06T00:00:05.303Z,17.42
2024-04-06T00:01:06.126Z,17.42
2024-04-06T00:02:06.977Z,17.42
2024-04-06T00:03:07.780Z,17.41
2024-04-06T00:04:08.456Z,17.41
2024-04-06T00:05:09.172Z,17.40
2024-04-06T00:06:09.855Z,17.40
2024-04-06T00:07:11.172Z,17.39
2024-04-06T00:08:16.745Z,17.39
2024-04-06T00:09:13.290Z,17.39
2024-04-06T00:10:13.169Z,17.39
2024-04-06T00:11:13.811Z,17.39
2024-04-06T00:12:14.534Z,17.40
2024-04-06T00:13:15.255Z,17.39
2024-04-06T00:14:16.081Z,17.41
2024-04-06T00:15:16.776Z,17.39
2024-04-06T00:16:17.577Z,17.38
2024-04-06T00:17:18.295Z,17.39
2024-04-06T00:18:19.057Z,17.37
2024-04-06T00:19:19.744Z,17.38
2024-04-06T00:20:21.152Z,17.37
2024-04-06T00:21:21.364Z,17.36
2024-04-06T00:22:22.240Z,17.34
2024-04-06T00:23:22.910Z,17.34
2024-04-06T00:24:23.612Z,17.32
2024-04-06T00:25:24.299Z,17.31
2024-04-06T00:26:25.047Z,17.30
2024-04-06T00:27:25.750Z,17.28
2024-04-06T00:28:26.558Z,17.28
2024-04-06T00:29:27.405Z,17.28
2024-04-06T00:30:28.105Z,17.27
2024-04-06T00:31:28.829Z,17.28
2024-04-06T00:32:29.600Z,17.27
2024-04-06T00:33:30.219Z,17.28
2024-04-06T00:34:31.279Z,17.27
2024-04-06T00:35:31.636Z,17.28
2024-04-06T00:36:32.442Z,17.28
2024-04-06T00:37:33.278Z,17.27
2024-04-06T00:38:34.059Z,17.29
2024-04-06T00:39:34.781Z,17.28
2024-04-06T00:40:35.529Z,17.28
2024-04-06T00:41:36.527Z,17.28
2024-04-06T00:42:36.819Z,17.27
2024-04-06T00:43:37.670Z,17.25
2024-04-06T00:44:38.536Z,17.25
2024-04-06T00:45:39.219Z,17.23
2024-04-06T00:46:39.961Z,17.22
2024-04-06T00:47:40.623Z,17.18
2024-04-06T00:48:41.367Z,17.16
2024-04-06T00:49:42.185Z,17.15
2024-04-06T00:50:42.564Z,17.13
2024-04-06T00:51:43.296Z,17.12
2024-04-06T00:52:43.955Z,17.10
2024-04-06T00:53:44.808Z,17.09
2024-04-06T00:54:45.522Z,17.09
2024-04-06T00:55:46.225Z,17.08
2024-04-06T00:56:46.906Z,17.09
2024-04-06T00:57:47.656Z,17.08
2024-04-06T00:58:48.467Z,17.08
2024-04-06T00:59:49.298Z,17.07
2024-04-06T01:00:50.066Z,17.08
2024-04-06T01:02:00.464Z,17.08
2024-04-06T01:02:51.520Z,17.08
2024-04-06T01:03:52.601Z,17.08
2024-04-06T01:04:52.968Z,17.07
2024-04-06T01:05:53.676Z,17.08
2024-04-06T01:06:54.359Z,17.08
2024-04-06T01:07:55.168Z,17.07
2024-04-06T01:08:55.857Z,17.07
2024-04-06T01:09:56.574Z,17.07
2024-04-06T01:10:57.369Z,17.07
2024-04-06T01:11:58.039Z,17.03
2024-04-06T01:12:58.996Z,17.05
2024-04-06T01:13:59.871Z,17.02
2024-04-06T01:15:00.749Z,17.02
2024-04-06T01:16:01.392Z,16.99
2024-04-06T01:17:02.129Z,16.99
2024-04-06T01:18:02.850Z,16.97
2024-04-06T01:19:03.727Z,16.97
2024-04-06T01:20:04.526Z,16.96
2024-04-06T01:21:05.215Z,16.95
2024-04-06T01:22:06.087Z,16.94
2024-04-06T01:23:06.838Z,16.93
2024-04-06T01:24:07.646Z,16.91
2024-04-06T01:25:08.331Z,16.91
2024-04-06T01:26:09.663Z,16.92
2024-04-06T01:27:09.897Z,16.90
2024-04-06T01:28:10.888Z,16.88
2024-04-06T01:29:11.307Z,16.88
2024-04-06T01:30:12.143Z,16.86
2024-04-06T01:31:12.970Z,16.86
2024-04-06T01:32:13.705Z,16.86
2024-04-06T01:33:14.385Z,16.85
2024-04-06T01:34:15.167Z,16.84
2024-04-06T01:35:16.177Z,16.84
2024-04-06T01:36:16.525Z,16.82
2024-04-06T01:37:17.206Z,16.82
2024-04-06T01:38:18.010Z,16.81
2024-04-06T01:39:18.723Z,16.80
2024-04-06T01:40:19.446Z,16.78
2024-04-06T01:41:20.284Z,16.76
2024-04-06T01:42:21.675Z,16.73
2024-04-06T01:43:21.851Z,16.71
2024-04-06T01:44:22.569Z,16.68
2024-04-06T01:45:23.272Z,16.65
2024-04-06T01:46:24.106Z,16.63
2024-04-06T01:47:24.860Z,16.60
2024-04-06T01:48:25.523Z,16.56
2024-04-06T01:49:26.322Z,16.53
2024-04-06T01:50:27.216Z,16.50
2024-04-06T01:51:27.888Z,16.45
2024-04-06T01:52:28.743Z,16.43
2024-04-06T01:53:29.634Z,16.39
2024-04-06T01:54:30.450Z,16.36
2024-04-06T01:55:31.156Z,16.32
2024-04-06T01:56:32.256Z,16.29
2024-04-06T01:57:32.650Z,16.26
2024-04-06T01:58:33.544Z,16.23
2024-04-06T01:59:34.166Z,16.20
2024-04-06T02:00:34.431Z,16.16
2024-04-06T02:01:35.187Z,16.11
2024-04-06T02:02:35.958Z,16.08
2024-04-06T02:03:36.856Z,16.04
2024-04-06T02:04:37.632Z,16.00
2024-04-06T02:05:38.271Z,15.98
2024-04-06T02:06:38.969Z,15.95
2024-04-06T02:07:39.680Z,15.92
2024-04-06T02:08:40.411Z,15.90
2024-04-06T02:09:41.203Z,15.88
2024-04-06T02:10:41.902Z,15.86
2024-04-06T02:11:42.628Z,15.84
2024-04-06T02:12:43.386Z,15.82
2024-04-06T02:13:44.092Z,15.82
2024-04-06T02:14:44.795Z,15.78
2024-04-06T02:15:45.500Z,15.78
2024-04-06T02:16:46.165Z,15.76
2024-04-06T02:17:46.936Z,15.75
2024-04-06T02:18:47.890Z,15.73
2024-04-06T02:19:48.741Z,15.73
2024-04-06T02:20:49.384Z,15.73
2024-04-06T02:21:50.223Z,15.73
2024-04-06T02:22:51.256Z,15.73
2024-04-06T02:23:51.990Z,15.73
2024-04-06T02:24:52.694Z,15.74
2024-04-06T02:25:53.782Z,15.75
2024-04-06T02:26:54.573Z,15.75
2024-04-06T02:27:55.461Z,15.75
2024-04-06T02:28:56.328Z,15.75
2024-04-06T02:29:57.009Z,15.74
2024-04-06T02:30:57.686Z,15.73
2024-04-06T02:31:58.541Z,15.73
2024-04-06T02:32:59.394Z,15.73
2024-04-06T02:34:00.243Z,15.72
2024-04-06T02:35:01.086Z,15.71
2024-04-06T02:36:01.899Z,15.72
2024-04-06T02:37:02.618Z,15.69
2024-04-06T02:38:03.365Z,15.69
2024-04-06T02:39:04.052Z,15.67
2024-04-06T02:40:04.806Z,15.65
2024-04-06T02:41:05.621Z,15.64
2024-04-06T02:42:06.339Z,15.61
2024-04-06T02:43:07.152Z,15.59
2024-04-06T02:44:07.881Z,15.56
2024-04-06T02:45:08.562Z,15.54
2024-04-06T02:46:09.386Z,15.52
2024-04-06T02:47:10.241Z,15.49
2024-04-06T02:48:11.042Z,15.46
2024-04-06T02:49:11.744Z,15.42
2024-04-06T02:50:12.444Z,15.39
2024-04-06T02:51:13.170Z,15.37
2024-04-06T02:52:13.978Z,15.34
2024-04-06T02:53:14.840Z,15.31
2024-04-06T02:54:15.552Z,15.28
2024-04-06T02:55:16.381Z,15.24
2024-04-06T02:56:17.064Z,15.22
2024-04-06T02:57:17.752Z,15.21
2024-04-06T02:58:18.590Z,15.17
2024-04-06T02:59:19.377Z,15.14
2024-04-06T03:00:20.190Z,15.11
2024-04-06T03:01:21.016Z,15.07
2024-04-06T03:02:21.952Z,15.05
2024-04-06T03:03:22.768Z,15.01
2024-04-06T03:04:23.665Z,14.99
2024-04-06T03:05:24.426Z,14.96
2024-04-06T03:06:25.250Z,14.94
2024-04-06T03:07:26.122Z,14.88
2024-04-06T03:08:26.957Z,14.88
2024-04-06T03:09:27.729Z,14.84
2024-04-06T03:10:28.466Z,14.82
2024-04-06T03:11:29.202Z,14.80
2024-04-06T03:12:30.687Z,14.77
2024-04-06T03:13:30.933Z,14.74
2024-04-06T03:14:31.738Z,14.72
2024-04-06T03:15:32.746Z,14.69
2024-04-06T03:16:33.056Z,14.68
2024-04-06T03:17:34.121Z,14.65
2024-04-06T03:18:34.574Z,14.63
2024-04-06T03:19:35.261Z,14.62
2024-04-06T03:20:35.975Z,14.60
2024-04-06T03:21:36.685Z,14.59
2024-04-06T03:22:37.496Z,14.57
2024-04-06T03:23:38.353Z,14.55
2024-04-06T03:24:39.044Z,14.52
2024-04-06T03:25:39.792Z,14.49
2024-04-06T03:26:40.552Z,14.48
2024-04-06T03:27:41.671Z,14.43
2024-04-06T03:28:42.171Z,14.40
2024-04-06T03:29:42.870Z,14.37
2024-04-06T03:30:43.715Z,14.35
2024-04-06T03:31:44.398Z,14.32
2024-04-06T03:32:45.081Z,14.29
2024-04-06T03:33:45.929Z,14.29
2024-04-06T03:34:46.602Z,14.25
2024-04-06T03:35:47.437Z,14.24
2024-04-06T03:36:48.255Z,14.21
2024-04-06T03:37:49.094Z,14.20
2024-04-06T03:38:49.806Z,14.18
2024-04-06T03:39:50.636Z,14.17
2024-04-06T03:40:51.417Z,14.15
2024-04-06T03:41:52.719Z,14.12
2024-04-06T03:42:52.891Z,14.10
2024-04-06T03:43:53.808Z,14.07
2024-04-06T03:44:54.577Z,14.04
2024-04-06T03:45:55.293Z,14.03
2024-04-06T03:46:56.031Z,14.01
2024-04-06T03:47:56.844Z,14.00
2024-04-06T03:48:57.538Z,13.98
2024-04-06T03:49:58.246Z,13.97
2024-04-06T03:50:58.960Z,13.95
2024-04-06T03:51:59.649Z,13.94
2024-04-06T03:53:00.490Z,13.92
2024-04-06T03:54:01.281Z,13.89
2024-04-06T03:55:02.102Z,13.87
2024-04-06T03:56:02.809Z,13.85
2024-04-06T03:57:03.519Z,13.83
2024-04-06T03:58:04.381Z,13.79
2024-04-06T03:59:05.203Z,13.78
2024-04-06T04:00:05.916Z,13.76
2024-04-06T04:01:06.647Z,13.72
2024-04-06T04:02:07.525Z,13.68
2024-04-06T04:03:08.300Z,13.66
2024-04-06T04:04:08.993Z,13.65
2024-04-06T04:05:09.832Z,13.62
2024-04-06T04:06:10.539Z,13.59
2024-04-06T04:07:11.225Z,13.57
2024-04-06T04:08:12.109Z,13.54
2024-04-06T04:09:12.930Z,13.53
2024-04-06T04:10:13.650Z,13.51
2024-04-06T04:11:14.327Z,13.50
2024-04-06T04:12:15.150Z,13.47
2024-04-06T04:13:15.929Z,13.46
2024-04-06T04:14:16.665Z,13.45
2024-04-06T04:15:17.359Z,13.44
2024-04-06T04:16:18.043Z,13.43
2024-04-06T04:17:18.727Z,13.42
2024-04-06T04:18:19.384Z,13.41
2024-04-06T04:19:20.117Z,13.40
2024-04-06T04:20:20.798Z,13.39
2024-04-06T04:21:21.585Z,13.39
2024-04-06T04:22:22.321Z,13.40
2024-04-06T04:23:22.926Z,13.41
2024-04-06T04:24:23.637Z,13.42
2024-04-06T04:25:24.235Z,13.42
2024-04-06T04:26:24.852Z,13.43
2024-04-06T04:27:25.638Z,13.44
2024-04-06T04:28:26.314Z,13.43
2024-04-06T04:29:26.883Z,13.45
2024-04-06T04:30:27.451Z,13.48
2024-04-06T04:31:28.081Z,13.50
2024-04-06T04:32:28.840Z,13.51
2024-04-06T04:33:29.428Z,13.51
2024-04-06T04:34:30.000Z,13.53
2024-04-06T04:35:30.805Z,13.53
2024-04-06T04:36:31.488Z,13.54
2024-04-06T04:37:32.299Z,13.54
2024-04-06T04:38:32.918Z,13.55
2024-04-06T04:39:33.473Z,13.54
2024-04-06T04:40:34.060Z,13.56
2024-04-06T04:41:34.950Z,13.55
2024-04-06T04:42:35.200Z,13.54
2024-04-06T04:43:35.902Z,13.54
2024-04-06T04:44:41.225Z,13.53
2024-04-06T04:45:37.084Z,13.52
2024-04-06T04:46:37.691Z,13.52
2024-04-06T04:47:38.329Z,13.51
2024-04-06T04:48:38.921Z,13.51
2024-04-06T04:49:39.744Z,13.50
2024-04-06T04:50:41.398Z,13.49
2024-04-06T04:51:43.846Z,13.47
2024-04-06T04:52:44.424Z,13.45
2024-04-06T04:53:43.455Z,13.43
2024-04-06T04:54:46.534Z,13.41
2024-04-06T04:55:46.189Z,13.39
2024-04-06T04:56:48.351Z,13.38
2024-04-06T04:57:47.824Z,13.35
2024-04-06T04:58:48.441Z,13.33
2024-04-06T04:59:48.190Z,13.31
2024-04-06T05:00:47.818Z,13.30
2024-04-06T05:01:48.406Z,13.30
2024-04-06T05:02:48.975Z,13.28
2024-04-06T05:03:49.704Z,13.28
2024-04-06T05:04:50.406Z,13.29
2024-04-06T05:05:51.007Z,13.29
2024-04-06T05:06:51.618Z,13.28
2024-04-06T05:07:52.260Z,13.29
2024-04-06T05:08:52.851Z,13.29
2024-04-06T05:09:53.404Z,13.31
2024-04-06T05:10:54.056Z,13.30
2024-04-06T05:11:54.769Z,13.32
2024-04-06T05:12:55.493Z,13.34
2024-04-06T05:13:56.075Z,13.36
2024-04-06T05:14:56.923Z,13.36
2024-04-06T05:15:57.640Z,13.40
2024-04-06T05:16:58.320Z,13.43
2024-04-06T05:17:59.025Z,13.45
2024-04-06T05:18:59.641Z,13.49
2024-04-06T05:20:00.278Z,13.53
2024-04-06T05:21:01.000Z,13.56
2024-04-06T05:22:01.666Z,13.59
2024-04-06T05:23:02.279Z,13.64
2024-04-06T05:24:03.133Z,13.67
2024-04-06T05:25:03.818Z,13.72
2024-04-06T05:26:04.541Z,13.77
2024-04-06T05:27:05.112Z,13.82
2024-04-06T05:28:05.735Z,13.87
2024-04-06T05:29:06.396Z,13.92
2024-04-06T05:30:07.073Z,13.98
2024-04-06T05:31:07.780Z,14.05
2024-04-06T05:32:08.375Z,14.11
2024-04-06T05:33:09.167Z,14.20
2024-04-06T05:34:09.956Z,14.28
2024-04-06T05:35:10.685Z,14.36
2024-04-06T05:36:11.277Z,14.45
2024-04-06T05:37:12.722Z,14.53
2024-04-06T05:38:12.826Z,14.63
2024-04-06T05:39:13.443Z,14.72
2024-04-06T05:40:14.132Z,14.81
2024-04-06T05:41:14.718Z,14.91
2024-04-06T05:42:22.543Z,15.01
2024-04-06T05:43:16.325Z,15.10
2024-04-06T05:44:16.946Z,15.19
2024-04-06T05:45:19.024Z,15.28
2024-04-06T05:46:19.001Z,15.38
2024-04-06T05:47:20.074Z,15.48
2024-04-06T05:48:19.646Z,15.58
2024-04-06T05:49:20.259Z,15.68
2024-04-06T05:50:20.969Z,15.78
2024-04-06T05:51:21.720Z,15.87
2024-04-06T05:52:22.338Z,15.98
2024-04-06T05:53:23.063Z,16.09
2024-04-06T05:54:23.692Z,16.19
2024-04-06T05:55:24.412Z,16.29
2024-04-06T05:56:25.092Z,16.40
2024-04-06T05:57:25.738Z,16.51
2024-04-06T05:58:26.400Z,16.61
2024-04-06T05:59:27.090Z,16.70
2024-04-06T06:00:27.681Z,16.79
2024-04-06T06:01:28.355Z,16.88
2024-04-06T06:02:29.091Z,16.97
2024-04-06T06:03:29.802Z,17.05
2024-04-06T06:04:30.440Z,17.13
2024-04-06T06:05:31.250Z,17.21
2024-04-06T06:06:31.793Z,17.30
2024-04-06T06:07:32.513Z,17.38
2024-04-06T06:08:33.275Z,17.44
2024-04-06T06:09:33.848Z,17.52
2024-04-06T06:10:35.312Z,17.59
2024-04-06T06:11:35.508Z,17.66
2024-04-06T06:12:36.205Z,17.74
2024-04-06T06:13:36.819Z,17.82
2024-04-06T06:14:37.466Z,17.88
2024-04-06T06:15:37.988Z,17.96
2024-04-06T06:16:38.740Z,18.03
2024-04-06T06:17:39.359Z,18.09
2024-04-06T06:18:40.765Z,18.16
2024-04-06T06:19:40.522Z,18.21
2024-04-06T06:20:41.163Z,18.31
2024-04-06T06:21:44.707Z,18.45
2024-04-06T06:22:42.418Z,18.69
2024-04-06T06:23:43.057Z,19.16
2024-04-06T06:24:43.695Z,19.75
2024-04-06T06:25:44.267Z,20.56
2024-04-06T06:26:45.038Z,21.67
2024-04-06T06:27:47.396Z,22.55
2024-04-06T06:28:46.251Z,23.19
2024-04-06T06:29:46.962Z,23.71
2024-04-06T06:30:47.675Z,24.11
2024-04-06T06:31:48.411Z,24.22
2024-04-06T06:32:49.117Z,24.64
2024-04-06T06:33:49.736Z,25.17
2024-04-06T06:34:50.318Z,25.62
2024-04-06T06:37:53.543Z,26.85
2024-04-06T06:40:54.363Z,28.18
2024-04-06T06:41:54.946Z,28.01
2024-04-06T06:42:55.719Z,27.74
2024-04-06T06:43:56.476Z,28.15
2024-04-06T06:44:57.089Z,28.82
2024-04-06T06:45:57.770Z,29.42
2024-04-06T06:46:58.344Z,29.86
2024-04-06T06:47:58.981Z,30.02
2024-04-06T06:48:59.614Z,30.40
2024-04-06T06:50:00.295Z,30.91
2024-04-06T06:51:01.025Z,31.43
2024-04-06T06:52:01.656Z,31.87
2024-04-06T06:53:02.396Z,32.21
2024-04-06T06:54:03.014Z,32.50
2024-04-06T06:55:03.613Z,32.80
2024-04-06T06:56:04.194Z,33.07
2024-04-06T06:57:04.777Z,33.35
2024-04-06T06:58:05.357Z,33.59
2024-04-06T06:59:06.081Z,33.82
2024-04-06T07:01:07.266Z,33.97
2024-04-06T07:02:07.872Z,34.11
2024-04-06T07:03:09.310Z,34.18
2024-04-06T07:04:09.156Z,34.14
2024-04-06T07:05:09.718Z,34.21
2024-04-06T07:06:10.362Z,34.29
2024-04-06T07:07:11.030Z,34.41
2024-04-06T07:08:11.679Z,34.67
2024-04-06T07:09:12.401Z,34.81
2024-04-06T07:10:13.203Z,34.75
2024-04-06T07:11:13.922Z,35.01
2024-04-06T07:12:14.479Z,35.32
2024-04-06T07:13:15.224Z,35.57
2024-04-06T07:14:15.928Z,35.78
2024-04-06T07:15:16.623Z,35.97
2024-04-06T07:16:17.289Z,36.03
2024-04-06T07:17:17.896Z,35.75
2024-04-06T07:18:18.619Z,35.71
2024-04-06T07:19:19.154Z,35.70
2024-04-06T07:20:19.878Z,35.99
2024-04-06T07:21:20.631Z,36.30
2024-04-06T07:22:21.198Z,36.62
2024-04-06T07:23:21.780Z,36.89
2024-04-06T07:24:22.416Z,37.11
2024-04-06T07:25:23.146Z,37.32
2024-04-06T07:26:23.913Z,37.53
2024-04-06T07:27:24.624Z,37.70
2024-04-06T07:28:25.198Z,37.79
2024-04-06T07:29:25.940Z,37.86
2024-04-06T07:30:26.576Z,37.95
2024-04-06T07:31:27.177Z,38.05
2024-04-06T07:32:27.911Z,38.13
2024-04-06T07:33:28.493Z,38.31
2024-04-06T07:34:29.088Z,38.51
2024-04-06T07:35:29.672Z,38.69
2024-04-06T07:36:30.263Z,38.81
2024-04-06T07:37:30.971Z,38.88
2024-04-06T07:38:31.707Z,38.96
2024-04-06T07:39:32.426Z,39.10
2024-04-06T07:40:33.006Z,39.27
2024-04-06T07:41:33.592Z,39.45
2024-04-06T07:42:34.177Z,39.62
2024-04-06T07:43:34.774Z,39.74
2024-04-06T07:44:35.399Z,39.85
2024-04-06T07:45:36.215Z,39.93
2024-04-06T07:46:37.293Z,39.96
2024-04-06T07:47:37.461Z,40.00
2024-04-06T07:48:38.211Z,40.14
2024-04-06T07:49:38.973Z,40.27
2024-04-06T07:50:39.515Z,40.36
2024-04-06T07:51:40.237Z,40.46
2024-04-06T07:52:40.991Z,40.53
2024-04-06T07:53:41.701Z,40.60
2024-04-06T07:54:42.285Z,40.69
2024-04-06T07:55:42.995Z,40.82
2024-04-06T07:56:43.593Z,40.91
2024-04-06T07:57:44.245Z,40.99
2024-04-06T07:58:45.036Z,41.06
2024-04-06T07:59:46.077Z,41.15
2024-04-06T08:00:46.414Z,41.27
2024-04-06T08:01:47.023Z,41.37
2024-04-06T08:02:47.756Z,41.48
2024-04-06T08:03:48.460Z,41.63
2024-04-06T08:04:49.174Z,41.83
2024-04-06T08:05:49.956Z,42.04
2024-04-06T08:06:50.666Z,42.17
2024-04-06T08:07:51.398Z,42.22
2024-04-06T08:08:51.960Z,42.26
2024-04-06T08:09:52.686Z,42.30
2024-04-06T08:10:53.322Z,42.31
2024-04-06T08:11:54.046Z,42.35
2024-04-06T08:12:54.724Z,42.35
2024-04-06T08:13:55.478Z,42.37
2024-04-06T08:14:56.310Z,42.40
2024-04-06T08:15:57.062Z,42.41
2024-04-06T08:16:58.773Z,42.36
2024-04-06T08:17:58.486Z,42.30
2024-04-06T08:18:59.105Z,42.29
2024-04-06T08:19:59.821Z,42.25
2024-04-06T08:21:00.563Z,42.17
2024-04-06T08:22:01.171Z,42.12
2024-04-06T08:23:01.754Z,42.11
2024-04-06T08:24:02.503Z,42.13
2024-04-06T08:25:03.261Z,42.12
2024-04-06T08:26:05.001Z,42.06
2024-04-06T08:27:04.571Z,41.93
2024-04-06T08:28:05.151Z,41.86
2024-04-06T08:29:05.812Z,41.81
2024-04-06T08:30:06.525Z,41.77
2024-04-06T08:31:07.260Z,41.78
2024-04-06T08:32:07.815Z,41.80
2024-04-06T08:33:09.178Z,41.84
2024-04-06T08:34:09.026Z,41.89
2024-04-06T08:35:09.637Z,41.89
2024-04-06T08:36:10.335Z,41.87
2024-04-06T08:37:10.974Z,41.88
2024-04-06T08:38:11.651Z,41.88
2024-04-06T08:39:12.410Z,41.89
2024-04-06T08:40:13.160Z,41.89
2024-04-06T08:41:13.818Z,41.90
2024-04-06T08:42:14.439Z,41.90
2024-04-06T08:43:15.142Z,41.89
2024-04-06T08:44:15.736Z,41.86
2024-04-06T08:45:16.458Z,41.75
2024-04-06T08:46:17.096Z,41.57
2024-04-06T08:47:17.644Z,41.39
2024-04-06T08:48:18.239Z,41.28
2024-04-06T08:49:18.859Z,41.26
2024-04-06T08:50:21.285Z,41.29
2024-04-06T08:51:20.115Z,41.33
2024-04-06T08:52:20.829Z,41.32
2024-04-06T08:53:21.649Z,41.26
2024-04-06T08:54:22.366Z,41.22
2024-04-06T08:55:23.100Z,41.22
2024-04-06T08:56:23.755Z,41.17
2024-04-06T08:57:24.326Z,41.16
2024-04-06T08:58:24.936Z,41.16
2024-04-06T08:59:25.762Z,41.17
2024-04-06T09:00:26.338Z,41.22
2024-04-06T09:01:26.913Z,41.23
2024-04-06T09:02:27.525Z,41.06
2024-04-06T09:03:28.259Z,40.65
2024-04-06T09:04:28.857Z,40.23
2024-04-06T09:05:29.460Z,39.90
2024-04-06T09:06:30.235Z,39.63
2024-04-06T09:07:30.873Z,39.46
2024-04-06T09:08:31.497Z,39.40
2024-04-06T09:09:32.169Z,39.32
2024-04-06T09:10:32.761Z,39.26
2024-04-06T09:11:33.347Z,39.18
2024-04-06T09:12:33.953Z,39.06
2024-04-06T09:13:34.663Z,38.93
2024-04-06T09:14:35.370Z,38.83
2024-04-06T09:15:36.228Z,38.76
2024-04-06T09:16:36.803Z,38.72
2024-04-06T09:17:37.457Z,38.76
2024-04-06T09:18:38.889Z,38.76
2024-04-06T09:19:38.575Z,38.76
2024-04-06T09:20:39.379Z,38.78
2024-04-06T09:21:40.002Z,38.83
2024-04-06T09:22:40.724Z,38.85
2024-04-06T09:23:41.303Z,38.84
2024-04-06T09:24:49.412Z,38.90
2024-04-06T09:25:42.521Z,38.95
2024-04-06T09:26:43.072Z,39.06
2024-04-06T09:27:43.654Z,39.16
2024-04-06T09:28:44.227Z,39.24
2024-04-06T09:29:45.051Z,39.27
2024-04-06T09:30:45.670Z,39.25
2024-04-06T09:31:46.229Z,39.24
2024-04-06T09:32:46.852Z,39.23
2024-04-06T09:33:47.546Z,39.15
2024-04-06T09:34:48.098Z,39.03
2024-04-06T09:35:48.863Z,38.87
2024-04-06T09:36:49.573Z,38.72
2024-04-06T09:37:50.278Z,38.62
2024-04-06T09:38:50.852Z,38.53
2024-04-06T09:39:51.476Z,38.46
2024-04-06T09:40:52.046Z,38.42
2024-04-06T09:41:52.638Z,38.36
2024-04-06T09:42:53.219Z,38.28
2024-04-06T09:43:53.834Z,38.24
2024-04-06T09:44:54.599Z,38.18
2024-04-06T09:45:55.308Z,38.09
2024-04-06T09:46:55.905Z,37.99
2024-04-06T09:47:56.474Z,37.86
2024-04-06T09:48:57.096Z,37.71
2024-04-06T09:49:57.784Z,37.53
2024-04-06T09:50:58.400Z,37.37
2024-04-06T09:51:58.981Z,37.24
2024-04-06T09:52:59.566Z,37.08
2024-04-06T09:54:00.344Z,36.90
2024-04-06T09:55:00.916Z,36.65
2024-04-06T09:56:01.492Z,36.37
2024-04-06T09:57:02.065Z,36.18
2024-04-06T09:58:02.703Z,36.01
2024-04-06T09:59:03.308Z,35.93
2024-04-06T10:00:03.908Z,35.85
2024-04-06T10:01:04.623Z,35.74
2024-04-06T10:02:05.255Z,35.65
2024-04-06T10:03:05.842Z,35.56
2024-04-06T10:04:06.422Z,35.33
2024-04-06T10:05:07.214Z,35.08
2024-04-06T10:06:07.768Z,34.90
2024-04-06T10:07:08.349Z,34.75
2024-04-06T10:08:08.914Z,34.59
2024-04-06T10:09:09.500Z,34.37
2024-04-06T10:10:10.145Z,34.15
2024-04-06T10:11:10.657Z,33.96
2024-04-06T10:12:11.301Z,33.82
2024-04-06T10:13:11.907Z,33.68
2024-04-06T10:14:12.589Z,33.62
2024-04-06T10:15:13.072Z,33.59
2024-04-06T10:16:13.623Z,33.58
2024-04-06T10:17:14.185Z,33.61
2024-04-06T10:18:14.856Z,33.63
2024-04-06T10:19:15.399Z,33.61
2024-04-06T10:20:15.949Z,33.56
2024-04-06T10:21:16.581Z,33.44
2024-04-06T10:22:17.171Z,33.34
2024-04-06T10:23:17.734Z,33.25
2024-04-06T10:24:18.317Z,33.14
2024-04-06T10:25:18.951Z,33.02
2024-04-06T10:26:19.560Z,32.88
2024-04-06T10:27:20.161Z,32.75
2024-04-06T10:28:20.908Z,32.61
2024-04-06T10:29:21.571Z,32.47
2024-04-06T10:30:22.226Z,32.31
2024-04-06T10:31:32.024Z,32.16
2024-04-06T10:32:23.673Z,32.02
2024-04-06T10:33:24.397Z,31.89
2024-04-06T10:34:27.426Z,31.77
2024-04-06T10:35:25.580Z,31.67
2024-04-06T10:36:26.168Z,31.57
2024-04-06T10:37:26.788Z,31.49
2024-04-06T10:38:27.369Z,31.37
2024-04-06T10:39:27.974Z,31.24
2024-04-06T10:40:28.650Z,31.12
2024-04-06T10:41:29.275Z,30.98
2024-04-06T10:42:29.882Z,30.82
2024-04-06T10:43:30.608Z,30.68
2024-04-06T10:44:31.174Z,30.55
2024-04-06T10:45:31.770Z,30.44
2024-04-06T10:46:32.337Z,30.34
2024-04-06T10:47:32.934Z,30.22
2024-04-06T10:48:33.492Z,30.11
2024-04-06T10:49:34.059Z,29.97
2024-04-06T10:50:34.678Z,29.89
2024-04-06T10:51:35.467Z,29.85
2024-04-06T10:52:36.191Z,29.79
2024-04-06T10:53:36.750Z,29.76
2024-04-06T10:54:39.031Z,29.72
2024-04-06T10:55:37.968Z,29.64
2024-04-06T10:56:38.548Z,29.60
2024-04-06T10:57:39.132Z,29.58
2024-04-06T10:58:39.712Z,29.52
2024-04-06T10:59:40.373Z,29.41
2024-04-06T11:00:40.971Z,29.35
2024-04-06T11:01:41.513Z,29.29
2024-04-06T11:02:42.077Z,29.30
2024-04-06T11:03:42.650Z,29.32
2024-04-06T11:04:43.289Z,29.36
2024-04-06T11:05:43.864Z,29.44
2024-04-06T11:06:44.498Z,29.52
2024-04-06T11:07:45.035Z,29.62
2024-04-06T11:08:45.606Z,29.70
2024-04-06T11:09:46.204Z,29.74
2024-04-06T11:10:46.787Z,29.78
2024-04-06T11:11:47.370Z,29.84
2024-04-06T11:12:48.072Z,29.91
2024-04-06T11:13:48.668Z,29.96
2024-04-06T11:14:49.262Z,29.99
2024-04-06T11:15:49.855Z,30.01
2024-04-06T11:16:50.586Z,30.03
2024-04-06T11:17:51.155Z,30.05
2024-04-06T11:18:51.755Z,30.06
2024-04-06T11:19:52.360Z,30.06
2024-04-06T11:20:52.964Z,30.10
2024-04-06T11:21:53.509Z,30.13
2024-04-06T11:22:54.091Z,30.16
2024-04-06T11:23:54.704Z,30.17
2024-04-06T11:24:55.275Z,30.20
2024-04-06T11:25:55.860Z,30.21
2024-04-06T11:26:56.429Z,30.23
2024-04-06T11:27:57.156Z,30.22
2024-04-06T11:28:57.931Z,30.22
2024-04-06T11:29:59.381Z,30.21
2024-04-06T11:30:59.075Z,30.18
2024-04-06T11:31:59.654Z,30.16
2024-04-06T11:33:00.465Z,30.14
2024-04-06T11:34:00.955Z,30.09
2024-04-06T11:35:01.532Z,30.07
2024-04-06T11:36:02.111Z,30.06
2024-04-06T11:37:02.709Z,30.06
2024-04-06T11:38:03.291Z,30.05
2024-04-06T11:39:03.883Z,30.04
2024-04-06T11:40:04.456Z,30.05
2024-04-06T11:41:05.059Z,30.03
2024-04-06T11:42:05.866Z,30.02
2024-04-06T11:43:06.397Z,30.03
2024-04-06T11:44:06.957Z,30.03
2024-04-06T11:45:07.582Z,30.02
2024-04-06T11:46:08.145Z,30.04
2024-04-06T11:47:08.715Z,30.07
2024-04-06T11:48:09.284Z,30.09
2024-04-06T11:49:09.857Z,30.10
2024-04-06T11:50:10.493Z,30.11
2024-04-06T11:51:11.069Z,30.11
2024-04-06T11:52:11.657Z,30.11
2024-04-06T11:53:12.256Z,30.12
2024-04-06T11:54:12.821Z,30.12
2024-04-06T11:55:13.419Z,30.14
2024-04-06T11:56:13.973Z,30.14
2024-04-06T11:57:14.644Z,30.14
2024-04-06T11:58:15.331Z,30.14
2024-04-06T11:59:15.883Z,30.14
2024-04-06T12:00:18.672Z,30.14
2024-04-06T12:01:17.047Z,30.15
2024-04-06T12:02:17.656Z,30.17
2024-04-06T12:03:18.236Z,30.20
2024-04-06T12:04:18.839Z,30.24
2024-04-06T12:05:19.425Z,30.25
2024-04-06T12:06:20.427Z,30.30
2024-04-06T12:07:20.991Z,30.35
2024-04-06T12:08:21.663Z,30.39
2024-04-06T12:09:22.224Z,30.41
2024-04-06T12:10:22.911Z,30.43
2024-04-06T12:11:23.401Z,30.45
2024-04-06T12:12:23.966Z,30.47
2024-04-06T12:13:24.606Z,30.49
2024-04-06T12:14:25.178Z,30.51
2024-04-06T12:15:25.760Z,30.54
2024-04-06T12:16:26.357Z,30.55
2024-04-06T12:17:26.937Z,30.57
2024-04-06T12:18:27.499Z,30.59
2024-04-06T12:19:28.155Z,30.62
2024-04-06T12:20:28.721Z,30.64
2024-04-06T12:21:29.313Z,30.67
2024-04-06T12:22:29.922Z,30.68
2024-04-06T12:23:30.485Z,30.69
2024-04-06T12:24:31.081Z,30.66
2024-04-06T12:25:31.662Z,30.65
2024-04-06T12:26:32.329Z,30.62
2024-04-06T12:27:32.836Z,30.60
2024-04-06T12:28:33.424Z,30.56
2024-04-06T12:29:34.069Z,30.55
2024-04-06T12:30:34.773Z,30.53
2024-04-06T12:31:35.346Z,30.54
2024-04-06T12:32:35.979Z,30.54
2024-04-06T12:33:36.667Z,30.55
2024-04-06T12:34:37.184Z,30.55
2024-04-06T12:35:37.759Z,30.54
2024-04-06T12:36:38.337Z,30.54
2024-04-06T12:37:38.913Z,30.51
2024-04-06T12:38:39.512Z,30.47
2024-04-06T12:39:40.066Z,30.45
2024-04-06T12:40:41.031Z,30.44
2024-04-06T12:41:41.266Z,30.39
2024-04-06T12:42:41.858Z,30.36
2024-04-06T12:43:42.454Z,30.32
2024-04-06T12:44:43.088Z,30.31
2024-04-06T12:45:43.657Z,30.32
2024-04-06T12:46:44.243Z,30.35
2024-04-06T12:47:44.872Z,30.35
2024-04-06T12:48:45.425Z,30.36
2024-04-06T12:49:45.995Z,30.37
2024-04-06T12:50:46.587Z,30.39
2024-04-06T12:51:47.524Z,30.41
2024-04-06T12:52:47.738Z,30.42
2024-04-06T12:53:48.280Z,30.43
2024-04-06T12:54:48.879Z,30.43
2024-04-06T12:55:49.448Z,30.46
2024-04-06T12:56:50.857Z,30.49
2024-04-06T12:57:50.685Z,30.52
2024-04-06T12:58:51.224Z,30.54
2024-04-06T12:59:51.797Z,30.56
2024-04-06T13:00:52.372Z,30.58
2024-04-06T13:01:53.058Z,30.61
2024-04-06T13:02:53.797Z,30.62
2024-04-06T13:04:03.527Z,30.62
2024-04-06T13:04:55.055Z,30.58
2024-04-06T13:05:55.853Z,30.58